Terminal Aerodrome Forecast
Issued by NWS Upton, NY

Current Version | Previous Version | Text Only | Print | Product List | Glossary On
Versions: 1 2 3 4 5 6 7 8 9 10 11 12 13 14 15 16 17 18 19 20 21 22 23 24 25 26 27
000
FTUS41 KOKX 281300 AAA
TAFEWR
TAF AMD
KEWR 281316Z 2813/2918 20006KT P6SM BKN025
      TEMPO 2813/2814 BKN015
     FM281400 24011G18KT P6SM SCT030 SCT120
     FM281700 25014G21KT P6SM SCT050
     FM282100 27018G26KT P6SM VCSH SCT050
     FM290100 28013G21KT P6SM FEW050
     FM290800 29009KT P6SM SKC=

USA.gov is the U.S. government's official web portal to all federal, state and local government web resources and services.